Time;durP1;ratioP1;P1;durP2;ratioP2;P2;SDS_P1;SDS_P2;PMS_P1;PMS_P2;Temp;Humidity;BMP_temperature;BMP_pressure;BME280_temperature;BME280_humidity;BME280_pressure;Samples;Min_cycle;Max_cycle;Signal;HPM_P1;HPM_P2
2022/05/20 00:00:36;;;;;;;36.23;32.47;;;;;;;15.09;85.11;102101.56;5223215;28;20021;-82
2022/05/20 00:03:07;;;;;;;37.73;33.83;;;;;;;14.64;86.48;102099.69;5222798;28;20101;-83
2022/05/20 00:05:39;;;;;;;40.13;35.03;;;;;;;14.43;88.02;102108.81;5220619;28;20095;-82
2022/05/20 00:08:10;;;;;;;36.97;32.40;;;;;;;14.51;87.48;102104.81;5220276;28;20046;-83
2022/05/20 00:10:42;;;;;;;40.10;33.70;;;;;;;14.73;86.33;102100.94;5216203;28;20477;-82
2022/05/20 00:13:13;;;;;;;35.67;31.93;;;;;;;14.72;86.21;102101.03;5222200;28;20036;-82
2022/05/20 00:15:45;;;;;;;37.73;32.97;;;;;;;14.59;86.88;102100.91;5218995;28;20128;-82
2022/05/20 00:18:16;;;;;;;36.80;32.97;;;;;;;14.78;85.98;102095.41;5218729;28;20030;-81
2022/05/20 00:20:48;;;;;;;37.43;33.53;;;;;;;14.26;87.57;102100.91;5221691;28;20033;-80
2022/05/20 00:23:19;;;;;;;37.03;33.43;;;;;;;14.50;86.97;102108.38;5216577;28;20056;-81
2022/05/20 00:25:51;;;;;;;35.60;32.10;;;;;;;14.22;88.00;102088.00;5224720;28;20599;-82
2022/05/20 00:28:25;;;;;;;36.67;32.70;;;;;;;14.48;87.40;102098.88;5229668;28;20171;-73
2022/05/20 00:31:00;;;;;;;34.92;31.38;;;;;;;14.40;87.13;102101.91;5227235;28;20080;-82
2022/05/20 00:33:33;;;;;;;38.03;32.93;;;;;;;14.25;87.74;102083.41;5218766;28;20021;-81
2022/05/20 00:36:05;;;;;;;34.20;30.93;;;;;;;14.22;87.36;102088.88;5215723;28;20501;-82
2022/05/20 00:38:37;;;;;;;34.17;30.63;;;;;;;14.52;86.63;102090.69;5225775;28;20151;-82
2022/05/20 00:41:09;;;;;;;37.10;30.80;;;;;;;14.15;87.30;102087.50;5227686;28;20125;-82
2022/05/20 00:43:43;;;;;;;34.83;31.23;;;;;;;14.37;87.42;102096.81;5219488;28;20026;-82
2022/05/20 00:46:18;;;;;;;33.30;30.00;;;;;;;14.28;86.95;102088.50;5209897;28;20583;-82
2022/05/20 00:48:57;;;;;;;32.77;29.50;;;;;;;14.14;87.73;102086.63;5219935;28;20029;-82
2022/05/20 00:51:34;;;;;;;33.37;29.97;;;;;;;14.02;88.43;102092.56;5216375;28;20049;-81
2022/05/20 00:54:18;;;;;;;31.77;28.47;;;;;;;14.26;86.92;102087.72;5229351;28;20366;-82
2022/05/20 00:57:00;;;;;;;32.63;29.38;;;;;;;14.10;87.56;102089.53;5229519;28;20468;-82
2022/05/20 00:59:34;;;;;;;35.27;31.50;;;;;;;13.88;88.39;102086.28;5231525;28;20021;-81
2022/05/20 01:02:14;;;;;;;33.07;29.60;;;;;;;14.19;86.98;102091.63;5228291;28;20021;-82
2022/05/20 01:04:47;;;;;;;31.37;28.00;;;;;;;13.84;87.94;102086.53;5223355;28;20057;-82
2022/05/20 01:07:19;;;;;;;28.92;26.10;;;;;;;13.89;88.07;102095.03;5210923;28;20536;-82
2022/05/20 01:09:50;;;;;;;28.77;25.80;;;;;;;13.74;88.71;102094.91;5229502;28;20021;-81
2022/05/20 01:12:24;;;;;;;28.27;25.27;;;;;;;13.62;89.06;102090.31;5222679;28;20481;-82
2022/05/20 01:14:55;;;;;;;28.20;25.27;;;;;;;13.99;87.30;102096.25;5210283;28;20052;-82
2022/05/20 01:17:28;;;;;;;27.50;24.77;;;;;;;14.05;86.74;102095.03;5211250;28;20455;-81
2022/05/20 01:19:59;;;;;;;29.27;26.03;;;;;;;13.95;86.66;102092.06;5212049;28;20029;-82
2022/05/20 01:22:48;;;;;;;26.77;24.07;;;;;;;14.09;86.31;102091.31;5222991;28;20033;-82
2022/05/20 01:25:21;;;;;;;27.20;24.10;;;;;;;14.02;86.57;102096.06;5214775;28;20029;-82
2022/05/20 01:27:52;;;;;;;25.80;23.10;;;;;;;13.95;85.79;102086.78;5219034;28;20610;-74
2022/05/20 01:30:26;;;;;;;27.43;24.67;;;;;;;13.72;87.61;102086.25;5217723;28;20080;-79
2022/05/20 01:33:01;;;;;;;;;;;;;;;14.11;84.82;102081.53;5220326;28;20447;-82
2022/05/20 01:35:41;;;;;;;27.58;24.77;;;;;;;13.78;88.09;102080.66;5233150;28;20754;-82
2022/05/20 01:38:13;;;;;;;28.73;25.17;;;;;;;13.63;87.61;102060.44;5213537;28;20132;-82
2022/05/20 01:40:49;;;;;;;28.13;25.07;;;;;;;13.59;88.49;102069.41;5229081;28;20108;-82
2022/05/20 01:43:38;;;;;;;31.53;28.33;;;;;;;13.65;88.30;102064.66;5229954;28;20032;-82
2022/05/20 01:46:33;;;;;;;30.13;27.13;;;;;;;13.66;88.97;102063.75;5235487;28;20436;-83
2022/05/20 01:49:30;;;;;;;29.75;26.85;;;;;;;13.58;89.84;102067.72;5225814;28;20422;-82
2022/05/20 01:52:26;;;;;;;30.23;27.23;;;;;;;13.61;89.30;102052.63;5231008;28;20030;-82
2022/05/20 01:55:16;;;;;;;29.87;26.80;;;;;;;13.51;90.03;102061.91;5217203;28;20048;-82
2022/05/20 01:57:52;;;;;;;29.97;26.73;;;;;;;13.47;89.26;102055.97;5214407;28;20040;-82
2022/05/20 02:00:29;;;;;;;29.87;26.87;;;;;;;13.25;90.42;102057.06;5213363;28;20034;-82
2022/05/20 02:03:05;;;;;;;28.90;26.00;;;;;;;13.53;88.79;102060.06;5215235;28;20042;-82
2022/05/20 02:05:59;;;;;;;29.83;26.63;;;;;;;13.40;89.93;102057.19;5225826;28;20408;-82
2022/05/20 02:08:46;;;;;;;33.13;29.77;;;;;;;13.37;89.76;102038.94;5214399;28;20058;-82
2022/05/20 02:11:33;;;;;;;35.77;31.00;;;;;;;13.19;91.48;102047.69;5215998;28;20029;-82
2022/05/20 02:14:32;;;;;;;32.13;28.87;;;;;;;13.40;89.69;102051.94;5232824;28;20030;-82
2022/05/20 02:17:13;;;;;;;30.27;27.23;;;;;;;13.18;89.90;102045.16;5222525;28;20069;-82
2022/05/20 02:19:56;;;;;;;31.60;28.27;;;;;;;13.17;89.93;102048.72;5213924;28;20045;-82
2022/05/20 02:22:33;;;;;;;31.47;28.30;;;;;;;13.26;89.79;102052.66;5213307;28;20030;-81
2022/05/20 02:25:09;;;;;;;33.57;30.07;;;;;;;13.00;90.38;102047.81;5217389;28;20061;-83
2022/05/20 02:27:44;;;;;;;30.17;27.07;;;;;;;13.31;88.81;102051.50;5213875;28;20022;-82
2022/05/20 02:30:19;;;;;;;33.47;30.03;;;;;;;13.06;90.34;102041.38;5219766;28;20049;-83
2022/05/20 02:32:59;;;;;;;31.23;27.93;;;;;;;13.23;89.72;102045.75;5234697;28;20030;-82
2022/05/20 02:35:32;;;;;;;33.50;30.00;;;;;;;13.11;90.25;102049.88;5228774;28;20036;-82
2022/05/20 02:38:16;;;;;;;32.23;28.83;;;;;;;13.13;90.32;102048.03;5233204;28;20523;-82
2022/05/20 02:40:49;;;;;;;33.20;29.65;;;;;;;13.18;89.65;102050.41;5222487;28;20022;-81
2022/05/20 02:43:21;;;;;;;31.60;28.33;;;;;;;13.31;88.96;102055.91;5229742;28;20139;-82
2022/05/20 02:45:53;;;;;;;33.97;29.37;;;;;;;13.07;89.78;102051.81;5228905;28;20284;-82
2022/05/20 02:48:24;;;;;;;34.23;30.67;;;;;;;12.95;91.09;102045.41;5212258;28;20046;-82
2022/05/20 02:50:58;;;;;;;33.10;29.70;;;;;;;12.91;91.15;102048.28;5222888;28;20029;-82
2022/05/20 02:53:29;;;;;;;31.90;28.43;;;;;;;13.01;90.62;102044.25;5214373;28;20020;-82
2022/05/20 02:56:03;;;;;;;33.10;29.73;;;;;;;13.00;91.03;102039.94;5230795;28;20384;-82
2022/05/20 03:04:15;;;;;;;33.77;30.33;;;;;;;13.07;89.57;102035.22;5219070;28;20493;-82
2022/05/20 03:06:49;;;;;;;32.73;29.33;;;;;;;12.95;90.77;102031.44;5233230;28;20029;-82
2022/05/20 03:09:23;;;;;;;34.22;30.73;;;;;;;12.91;92.03;102032.50;5222592;28;20034;-82
2022/05/20 03:11:55;;;;;;;33.97;30.47;;;;;;;12.65;92.11;102035.53;5228427;28;20479;-82
2022/05/20 03:14:26;;;;;;;35.23;30.37;;;;;;;12.77;91.93;102023.53;5230785;28;20087;-82
2022/05/20 03:17:01;;;;;;;34.73;29.93;;;;;;;12.86;91.80;102024.00;5232959;28;20482;-82
2022/05/20 03:19:33;;;;;;;33.07;29.67;;;;;;;12.78;91.12;102032.25;5221790;28;20492;-82
2022/05/20 03:22:06;;;;;;;36.93;29.80;;;;;;;13.00;90.88;102037.31;5230824;28;20037;-83
2022/05/20 03:24:37;;;;;;;34.30;30.27;;;;;;;13.11;90.12;102035.91;5223260;28;20542;-82
2022/05/20 03:27:09;;;;;;;33.60;30.00;;;;;;;12.82;90.71;102024.16;5211272;28;20018;-82
2022/05/20 03:29:40;;;;;;;33.00;29.73;;;;;;;12.70;90.88;102015.13;5212528;28;20053;-82
2022/05/20 03:32:12;;;;;;;32.40;28.70;;;;;;;12.68;91.98;102029.25;5213986;28;20291;-82
2022/05/20 03:34:43;;;;;;;35.73;32.07;;;;;;;12.56;92.86;102026.31;5218279;28;20484;-82
2022/05/20 03:37:15;;;;;;;32.77;29.40;;;;;;;12.64;92.13;102027.69;5212604;28;20085;-82
2022/05/20 03:39:46;;;;;;;34.30;30.77;;;;;;;12.60;92.35;102026.16;5223948;28;20071;-81
2022/05/20 03:42:18;;;;;;;37.87;33.13;;;;;;;12.75;92.39;102017.50;5213379;28;20034;-82
2022/05/20 03:44:51;;;;;;;35.33;31.80;;;;;;;12.70;92.57;102035.28;5214393;28;20649;-82
2022/05/20 03:47:22;;;;;;;36.80;33.00;;;;;;;12.65;93.50;102021.53;5221991;28;20072;-82
2022/05/20 03:49:54;;;;;;;38.87;34.77;;;;;;;12.73;94.05;102019.34;5231660;28;20025;-83
2022/05/20 03:52:25;;;;;;;37.13;33.17;;;;;;;12.81;93.98;102011.09;5210927;28;20030;-82
2022/05/20 03:54:56;;;;;;;41.43;36.03;;;;;;;12.81;94.42;102011.09;5223768;28;20030;-82
2022/05/20 03:57:27;;;;;;;38.27;34.27;;;;;;;12.90;94.07;102001.88;5212794;28;20040;-81
2022/05/20 03:59:59;;;;;;;43.50;36.50;;;;;;;12.93;95.21;102009.63;5211808;28;20030;-83
2022/05/20 04:02:30;;;;;;;45.03;38.00;;;;;;;12.95;94.56;101995.44;5214234;28;20030;-82
2022/05/20 04:05:01;;;;;;;45.93;41.03;;;;;;;12.74;95.92;101991.31;5218439;28;20790;-82
2022/05/20 04:07:33;;;;;;;43.17;38.50;;;;;;;12.87;95.43;101995.00;5212237;28;20084;-81
2022/05/20 04:10:06;;;;;;;42.63;38.03;;;;;;;12.90;94.25;101971.16;5225674;28;20111;-82
2022/05/20 04:12:42;;;;;;;42.93;38.30;;;;;;;12.62;95.47;101974.38;5225179;28;20045;-82
2022/05/20 04:15:15;;;;;;;45.10;40.20;;;;;;;12.70;95.87;101977.47;5217394;28;20051;-82
2022/05/20 04:17:46;;;;;;;40.23;36.27;;;;;;;12.76;95.27;101987.66;5212928;28;20026;-82
2022/05/20 04:20:18;;;;;;;44.90;39.80;;;;;;;12.67;94.63;101982.88;5211526;28;20036;-82
2022/05/20 04:22:49;;;;;;;41.20;37.13;;;;;;;12.71;94.75;101981.78;5224742;28;20018;-82
2022/05/20 04:25:21;;;;;;;39.47;35.17;;;;;;;12.75;93.97;101979.84;5231496;28;20036;-82
2022/05/20 04:27:52;;;;;;;43.20;38.33;;;;;;;12.70;95.13;101980.09;5230348;28;20073;-75
2022/05/20 04:30:23;;;;;;;45.20;40.40;;;;;;;12.84;95.32;101982.03;5225444;28;20084;-82
2022/05/20 04:32:54;;;;;;;46.13;41.13;;;;;;;12.85;95.75;101982.84;5217792;28;20121;-83
2022/05/20 04:35:26;;;;;;;48.07;43.13;;;;;;;12.92;95.88;101989.50;5224946;28;20080;-82
2022/05/20 04:37:57;;;;;;;49.70;44.20;;;;;;;12.75;96.50;101978.09;5230303;28;20025;-82
2022/05/20 04:40:28;;;;;;;45.57;40.70;;;;;;;12.82;96.29;101982.09;5216361;28;20084;-82
2022/05/20 04:48:39;;;;;;;49.53;44.47;;;;;;;12.58;98.15;101968.44;5223377;28;20124;-82
2022/05/20 04:51:10;;;;;;;49.80;44.47;;;;;;;12.90;97.73;101999.22;5216022;28;20469;-80
2022/05/20 04:56:31;;;;;;;53.73;46.50;;;;;;;12.79;98.77;101997.19;5218771;28;20030;-82
2022/05/20 04:59:03;;;;;;;56.53;45.40;;;;;;;12.89;99.41;101997.53;5219327;28;20026;-82
2022/05/20 05:01:34;;;;;;;51.87;45.47;;;;;;;12.92;99.06;101998.25;5221385;28;20046;-82
2022/05/20 05:04:06;;;;;;;52.07;44.80;;;;;;;13.02;99.37;102003.88;5214948;28;20046;-82
2022/05/20 05:06:38;;;;;;;55.63;45.13;;;;;;;13.04;99.35;102001.16;5228222;28;20076;-82
2022/05/20 05:09:10;;;;;;;50.50;42.80;;;;;;;13.20;99.87;102011.72;5225795;28;20025;-82
2022/05/20 05:11:41;;;;;;;57.33;45.23;;;;;;;13.12;100.00;101998.13;5210877;28;20041;-82
2022/05/20 05:14:16;;;;;;;52.73;43.13;;;;;;;13.16;100.00;102000.53;5223672;28;20053;-82
2022/05/20 05:16:47;;;;;;;;;;;;;;;13.51;97.41;102010.09;5231024;28;20048;-82
2022/05/20 05:19:18;;;;;;;56.10;40.80;;;;;;;13.32;99.38;102004.97;5217205;28;19918;-82
2022/05/20 05:21:50;;;;;;;49.67;42.93;;;;;;;13.34;99.12;102010.16;5218567;28;20056;-83
2022/05/20 05:24:21;;;;;;;51.43;42.17;;;;;;;13.51;98.51;101998.75;5218203;28;20100;-81
2022/05/20 05:26:52;;;;;;;49.47;41.37;;;;;;;13.54;98.00;102011.75;5218397;28;20025;-80
2022/05/20 05:29:24;;;;;;;44.47;39.73;;;;;;;13.55;98.54;102001.16;5221625;28;20067;-81
2022/05/20 05:31:55;;;;;;;42.60;37.87;;;;;;;13.77;97.82;102007.03;5219540;28;20030;-80
2022/05/20 05:34:26;;;;;;;41.30;37.10;;;;;;;13.59;97.85;102004.47;5224000;28;20109;-81
2022/05/20 05:36:57;;;;;;;42.50;38.17;;;;;;;13.59;97.47;101985.19;5210313;28;20059;-82
2022/05/20 05:39:29;;;;;;;42.63;37.23;;;;;;;13.48;98.10;101970.81;5213568;28;20369;-82
2022/05/20 05:42:01;;;;;;;42.40;37.93;;;;;;;13.47;99.02;101977.00;5215269;28;20022;-82
2022/05/20 05:44:32;;;;;;;43.83;39.23;;;;;;;13.33;99.55;101958.47;5217708;28;20030;-82
2022/05/20 05:47:04;;;;;;;43.77;39.47;;;;;;;13.60;98.45;101965.81;5218355;28;20026;-77
2022/05/20 05:49:35;;;;;;;44.50;39.83;;;;;;;13.63;99.50;101961.22;5213449;28;20588;-77
2022/05/20 05:52:06;;;;;;;44.77;40.03;;;;;;;13.73;99.84;101974.75;5219304;28;20036;-77
2022/05/20 05:54:38;;;;;;;39.57;35.53;;;;;;;13.90;99.32;101957.16;5218100;28;20487;-76
2022/05/20 05:57:09;;;;;;;37.97;34.17;;;;;;;14.05;98.56;101960.69;5219156;28;20030;-77
2022/05/20 05:59:41;;;;;;;38.20;34.20;;;;;;;14.17;98.62;101964.44;5219921;28;20026;-79
2022/05/20 06:02:12;;;;;;;34.07;30.30;;;;;;;14.24;97.35;101968.41;5220272;28;20067;-78
2022/05/20 06:04:44;;;;;;;35.47;31.60;;;;;;;14.29;96.33;101973.44;5219445;28;20587;-78
2022/05/20 06:07:16;;;;;;;31.63;27.23;;;;;;;14.36;95.29;101961.59;5215602;28;20041;-78
2022/05/20 06:09:47;;;;;;;32.70;29.07;;;;;;;14.35;95.75;101969.56;5223569;28;20044;-78
2022/05/20 06:12:18;;;;;;;29.77;26.57;;;;;;;14.41;95.38;101969.22;5223045;28;20037;-78
2022/05/20 06:14:49;;;;;;;27.73;23.63;;;;;;;14.31;95.33;101955.75;5233535;28;20040;-78
2022/05/20 06:17:21;;;;;;;28.50;25.57;;;;;;;14.50;95.38;101963.41;5232824;28;20040;-77
2022/05/20 06:19:53;;;;;;;32.40;26.23;;;;;;;14.45;94.66;101956.72;5223049;28;20030;-73
2022/05/20 06:22:24;;;;;;;26.27;23.23;;;;;;;14.59;95.21;101956.72;5214195;28;20030;-73
2022/05/20 06:24:55;;;;;;;29.97;24.93;;;;;;;14.65;95.77;101963.44;5208888;28;20048;-73
2022/05/20 06:27:26;;;;;;;24.90;22.10;;;;;;;14.76;94.05;101962.81;5212212;28;20029;-73
2022/05/20 06:29:58;;;;;;;23.13;20.57;;;;;;;14.85;92.29;101954.34;5220128;28;20044;-73
2022/05/20 06:32:29;;;;;;;22.70;20.20;;;;;;;14.85;93.01;101959.63;5208505;28;20079;-74
2022/05/20 06:40:44;;;;;;;19.37;17.37;;;;;;;15.07;86.62;101939.88;5223026;28;20073;-77
2022/05/20 06:43:19;;;;;;;22.67;17.05;;;;;;;15.17;86.86;101934.84;5229472;28;20033;-73
2022/05/20 06:45:52;;;;;;;20.03;16.87;;;;;;;15.31;85.96;101930.50;5215857;28;20022;-72
2022/05/20 06:48:35;;;;;;;18.77;16.23;;;;;;;15.38;85.14;101931.00;5225483;28;20038;-73
2022/05/20 06:51:09;;;;;;;21.40;16.13;;;;;;;15.52;84.61;101930.94;5217863;28;20029;-73
2022/05/20 06:53:40;;;;;;;18.25;14.60;;;;;;;15.78;84.05;101933.69;5230864;28;20017;-73
2022/05/20 06:56:12;;;;;;;18.83;15.77;;;;;;;16.00;83.56;101931.47;5212333;28;20292;-73
2022/05/20 06:58:44;;;;;;;17.10;13.90;;;;;;;16.08;83.57;101932.69;5222969;28;20591;-72
2022/05/20 07:01:16;;;;;;;17.30;14.17;;;;;;;16.22;81.77;101933.53;5226734;28;20418;-72
2022/05/20 07:03:47;;;;;;;18.73;13.40;;;;;;;16.36;81.16;101914.13;5226270;28;20703;-73
2022/05/20 07:06:19;;;;;;;24.43;13.53;;;;;;;16.50;79.82;101909.69;5228661;28;20030;-73
2022/05/20 07:08:50;;;;;;;14.57;11.80;;;;;;;16.65;77.59;101913.09;5231446;28;20037;-73
2022/05/20 07:11:23;;;;;;;16.23;11.77;;;;;;;16.86;77.37;101916.03;5218354;28;20026;-72
2022/05/20 07:13:56;;;;;;;15.87;11.77;;;;;;;16.93;75.46;101906.69;5231953;28;20033;-73
2022/05/20 07:16:29;;;;;;;14.93;11.50;;;;;;;17.49;74.30;101899.28;5214484;28;20045;-73
2022/05/20 07:19:00;;;;;;;15.70;10.57;;;;;;;17.77;71.86;101884.00;5231261;28;20029;-73
2022/05/20 07:21:32;;;;;;;11.83;10.03;;;;;;;18.29;69.52;101890.00;5231415;28;20542;-72
2022/05/20 07:24:04;;;;;;;13.63;9.77;;;;;;;18.80;69.11;101891.34;5227984;28;20041;-72
2022/05/20 07:26:36;;;;;;;16.83;8.67;;;;;;;19.23;67.70;101891.59;5212737;28;20140;-72
2022/05/20 07:29:08;;;;;;;14.27;7.70;;;;;;;19.54;64.02;101894.41;5230340;28;20532;-72
2022/05/20 07:31:40;;;;;;;12.90;8.27;;;;;;;19.97;61.53;101878.53;5229336;28;20021;-71
2022/05/20 07:34:12;;;;;;;12.85;6.50;;;;;;;20.23;58.81;101875.50;5231112;28;20514;-71
2022/05/20 07:36:44;;;;;;;11.40;6.25;;;;;;;20.40;58.16;101873.22;5228124;28;20021;-73
2022/05/20 07:39:15;;;;;;;9.30;5.93;;;;;;;20.51;56.69;101888.28;5226546;28;20026;-74
2022/05/20 07:41:47;;;;;;;7.85;5.40;;;;;;;21.05;57.31;101889.91;5221534;28;20025;-74
2022/05/20 07:44:19;;;;;;;8.82;5.50;;;;;;;20.74;53.14;101882.75;5224190;28;20033;-74
2022/05/20 07:46:50;;;;;;;9.77;5.93;;;;;;;20.48;54.23;101865.41;5196580;28;20682;-74
2022/05/20 07:49:21;;;;;;;9.68;5.60;;;;;;;20.62;54.46;101868.69;5216096;28;20026;-74
2022/05/20 07:51:57;;;;;;;15.10;5.53;;;;;;;20.90;54.67;101859.13;5214900;28;20021;-74
2022/05/20 07:54:32;;;;;;;11.60;5.45;;;;;;;21.13;52.97;101844.78;5216322;28;20491;-74
2022/05/20 07:57:12;;;;;;;9.43;5.20;;;;;;;21.67;52.62;101840.88;5215875;28;20029;-74
2022/05/20 07:59:48;;;;;;;10.23;5.75;;;;;;;21.85;50.25;101847.19;5224914;28;20109;-74
2022/05/20 08:02:22;;;;;;;10.32;5.03;;;;;;;21.93;49.93;101849.16;5224983;28;20756;-74
2022/05/20 08:04:57;;;;;;;7.80;5.13;;;;;;;21.86;48.68;101838.22;5219169;28;20115;-74
2022/05/20 08:07:34;;;;;;;11.00;5.80;;;;;;;22.13;48.96;101833.13;5218825;28;20033;-73
2022/05/20 08:10:10;;;;;;;10.10;5.28;;;;;;;22.10;48.12;101828.06;5219856;28;20030;-73
2022/05/20 08:12:41;;;;;;;9.88;5.05;;;;;;;22.74;48.94;101824.75;5220181;28;20021;-73
2022/05/20 08:15:14;;;;;;;9.45;5.10;;;;;;;23.12;47.00;101831.81;5221733;28;20060;-74
2022/05/20 08:17:45;;;;;;;7.23;4.37;;;;;;;23.29;46.55;101838.16;5221281;28;20034;-74
2022/05/20 08:20:25;;;;;;;10.63;5.25;;;;;;;23.44;45.86;101835.84;5229063;28;20741;-74
2022/05/20 08:22:57;;;;;;;9.88;5.00;;;;;;;22.87;45.77;101805.69;5229388;28;20423;-74
2022/05/20 08:25:29;;;;;;;7.65;5.05;;;;;;;23.75;47.02;101818.50;5218649;28;20044;-74
2022/05/20 08:28:00;;;;;;;8.35;5.05;;;;;;;23.66;45.81;101815.78;5229112;28;20021;-74
2022/05/20 08:30:32;;;;;;;10.10;5.20;;;;;;;23.49;45.71;101811.31;5227440;28;20060;-74
2022/05/20 08:33:04;;;;;;;8.32;5.22;;;;;;;23.75;45.57;101810.50;5228297;28;20022;-74
2022/05/20 08:35:35;;;;;;;11.30;5.70;;;;;;;23.66;46.18;101809.59;5227017;28;20041;-73
2022/05/20 08:38:06;;;;;;;13.10;6.75;;;;;;;23.61;45.19;101804.72;5228871;28;20037;-73
2022/05/20 08:40:44;;;;;;;13.02;6.53;;;;;;;22.92;46.93;101803.41;5216941;28;20503;-75
2022/05/20 08:43:18;;;;;;;10.70;7.15;;;;;;;22.65;48.08;101793.59;5229041;28;20109;-75
2022/05/20 08:45:50;;;;;;;13.25;7.30;;;;;;;22.38;48.65;101779.25;5220319;28;20047;-76
2022/05/20 08:48:22;;;;;;;10.73;6.40;;;;;;;22.59;48.61;101770.97;5224487;28;20022;-76
2022/05/20 08:50:56;;;;;;;11.00;7.07;;;;;;;22.77;47.97;101765.69;5228732;28;20022;-75
2022/05/20 08:53:32;;;;;;;;;;;;;;;23.71;49.29;101764.50;5230188;28;20470;-74
2022/05/20 08:56:08;;;;;;;11.70;6.93;;;;;;;23.84;47.50;101747.19;5215287;28;20449;-75
2022/05/20 08:58:47;;;;;;;9.60;6.85;;;;;;;23.82;47.02;101731.31;5228420;28;20026;-75
2022/05/20 09:01:39;;;;;;;13.15;7.72;;;;;;;24.47;47.82;101763.06;5228731;28;20037;-74
2022/05/20 09:04:13;;;;;;;10.32;8.48;;;;;;;23.95;45.84;101768.31;5229098;28;20041;-76
2022/05/20 09:07:07;;;;;;;11.70;7.53;;;;;;;23.97;46.67;101760.13;5226641;28;20028;-75
2022/05/20 09:09:46;;;;;;;12.38;9.32;;;;;;;23.23;48.06;101748.78;5220756;28;20030;-75
2022/05/20 09:12:29;;;;;;;15.55;9.93;;;;;;;23.02;47.82;101739.22;5218959;28;20021;-75
2022/05/20 09:18:03;;;;;;;11.93;9.23;;;;;;;22.86;48.71;101731.91;5229112;28;20080;-75
2022/05/20 09:20:41;;;;;;;18.35;9.18;;;;;;;23.58;48.03;101722.13;5218687;28;20033;-75
2022/05/20 09:23:15;;;;;;;13.18;8.85;;;;;;;23.25;48.33;101716.56;5228928;28;20029;-75
2022/05/20 09:25:49;;;;;;;;;;;;;;;24.22;48.49;101714.78;5215840;28;20029;-76
2022/05/20 09:28:51;;;;;;;13.40;8.70;;;;;;;24.37;47.55;101701.59;5225622;28;19954;-76
2022/05/20 09:31:45;;;;;;;14.65;9.30;;;;;;;24.75;46.99;101682.44;5229562;28;20026;-75
2022/05/20 09:34:25;;;;;;;15.25;9.80;;;;;;;24.69;45.45;101689.31;5230085;28;20086;-76
2022/05/20 09:37:03;;;;;;;20.05;11.43;;;;;;;24.03;46.33;101684.59;5226933;28;20029;-76
2022/05/20 09:39:42;;;;;;;15.15;10.60;;;;;;;25.03;46.18;101682.13;5223937;28;20026;-76
2022/05/20 09:42:26;;;;;;;16.80;11.73;;;;;;;24.70;45.88;101668.72;5230570;28;20034;-75
2022/05/20 09:45:00;;;;;;;14.65;12.38;;;;;;;24.76;46.15;101665.38;5226024;28;20018;-76
2022/05/20 09:47:37;;;;;;;17.65;12.20;;;;;;;24.94;45.20;101661.72;5223378;28;20018;-75
2022/05/20 09:50:11;;;;;;;14.70;11.55;;;;;;;25.27;45.33;101653.66;5220586;28;20113;-75
2022/05/20 09:52:57;;;;;;;15.13;11.52;;;;;;;25.70;43.37;101641.81;5230123;28;20580;-75
2022/05/20 09:55:40;;;;;;;13.40;11.25;;;;;;;25.99;42.56;101645.69;5215141;28;20017;-76
2022/05/20 09:58:27;;;;;;;19.25;14.13;;;;;;;25.90;44.30;101636.88;5229113;28;21063;-75
2022/05/20 10:00:58;;;;;;;19.30;12.93;;;;;;;25.67;45.28;101626.06;5223192;28;20030;-75
2022/05/20 10:03:38;;;;;;;17.27;12.07;;;;;;;25.90;43.74;101610.03;5223352;28;20061;-75
2022/05/20 10:06:20;;;;;;;14.00;11.02;;;;;;;26.72;42.64;101595.38;5224878;28;20025;-76
2022/05/20 10:09:17;;;;;;;14.32;9.65;;;;;;;26.74;44.47;101588.78;5215522;28;20017;-74
2022/05/20 10:12:07;;;;;;;21.70;12.27;;;;;;;26.92;42.64;101584.94;5225828;28;20400;-75
2022/05/20 10:14:53;;;;;;;18.52;10.60;;;;;;;26.92;43.06;101572.34;5232366;28;20028;-76
2022/05/20 10:17:49;;;;;;;19.67;11.82;;;;;;;26.64;43.67;101566.72;5224606;28;20059;-76
2022/05/20 10:20:44;;;;;;;14.00;12.00;;;;;;;25.55;44.58;101564.75;5212128;28;20030;-76
2022/05/20 10:23:27;;;;;;;14.65;11.60;;;;;;;25.57;45.16;101557.34;5233725;28;20040;-76
2022/05/20 10:26:21;;;;;;;18.33;11.27;;;;;;;25.49;46.19;101518.00;5217602;28;20395;-76
2022/05/20 10:34:55;;;;;;;15.75;10.77;;;;;;;25.12;46.16;101538.25;5227801;28;20034;-76
2022/05/20 10:38:06;;;;;;;14.25;10.32;;;;;;;25.32;46.84;101530.66;5216819;28;20030;-77
2022/05/20 10:41:04;;;;;;;17.00;11.68;;;;;;;25.22;46.20;101519.31;5220027;28;20441;-75
2022/05/20 10:50:08;;;;;;;13.07;10.63;;;;;;;24.52;47.32;101469.72;5226761;28;20488;-76
2022/05/20 10:53:31;;;;;;;14.80;9.90;;;;;;;24.73;48.11;101459.50;5226180;28;20420;-77
2022/05/20 10:56:16;;;;;;;14.70;11.23;;;;;;;24.39;47.72;101437.28;5217093;28;20671;-77
2022/05/20 10:58:48;;;;;;;18.65;11.70;;;;;;;24.31;47.91;101430.13;5216432;28;20034;-79
2022/05/20 11:01:47;;;;;;;14.30;10.07;;;;;;;24.56;48.27;101423.88;5219682;28;20080;-78
2022/05/20 11:04:36;;;;;;;17.73;11.13;;;;;;;24.06;48.94;101389.97;5232838;28;20057;-76
2022/05/20 11:07:37;;;;;;;18.38;12.75;;;;;;;24.25;48.13;101396.00;5224483;28;20030;-77
2022/05/20 11:10:35;;;;;;;13.68;11.70;;;;;;;24.24;48.75;101386.31;5224915;28;20029;-77
2022/05/20 11:13:25;;;;;;;17.30;12.70;;;;;;;24.28;48.38;101363.53;5218444;28;20032;-77
2022/05/20 11:16:20;;;;;;;18.60;12.00;;;;;;;24.41;49.49;101358.50;5229760;28;20428;-78
2022/05/20 11:19:06;;;;;;;17.77;13.02;;;;;;;24.22;50.98;101364.22;5224179;28;20029;-78
2022/05/20 11:22:03;;;;;;;18.77;13.60;;;;;;;24.38;50.24;101349.97;5212496;28;20491;-76
2022/05/20 11:24:53;;;;;;;21.08;15.32;;;;;;;24.02;50.19;101356.53;5210908;28;20112;-76
2022/05/20 11:27:24;;;;;;;19.13;16.73;;;;;;;23.91;50.50;101355.88;5218229;28;20029;-76
2022/05/20 11:30:05;;;;;;;24.55;17.13;;;;;;;24.04;51.15;101346.50;5220354;28;20024;-77
2022/05/20 11:32:51;;;;;;;18.63;15.52;;;;;;;23.85;52.25;101340.50;5211822;28;20038;-76
2022/05/20 11:35:59;;;;;;;22.15;18.10;;;;;;;23.81;52.46;101345.38;5228814;28;20029;-75
2022/05/20 11:38:30;;;;;;;21.75;17.65;;;;;;;23.38;53.58;101340.16;5230059;28;20065;-76
2022/05/20 11:41:29;;;;;;;23.48;18.50;;;;;;;23.40;52.80;101332.81;5230967;28;20120;-75
2022/05/20 11:44:22;;;;;;;23.58;18.40;;;;;;;23.40;53.89;101324.78;5232877;28;20030;-75
2022/05/20 11:47:02;;;;;;;25.20;19.50;;;;;;;23.43;53.44;101331.66;5231045;28;20034;-75
2022/05/20 11:49:55;;;;;;;24.88;18.40;;;;;;;23.00;55.74;101323.72;5233852;28;20583;-75
2022/05/20 11:52:48;;;;;;;26.42;18.52;;;;;;;22.83;56.13;101302.31;5234677;28;20362;-75
2022/05/20 11:55:23;;;;;;;24.90;19.85;;;;;;;22.80;56.42;101274.09;5231230;28;20427;-76
2022/05/20 11:58:00;;;;;;;22.00;19.30;;;;;;;22.90;57.24;101263.25;5231852;28;20084;-76
2022/05/20 12:00:36;;;;;;;26.52;18.80;;;;;;;23.17;57.04;101285.34;5232175;28;20025;-75
2022/05/20 12:03:15;;;;;;;25.10;20.48;;;;;;;22.81;60.42;101289.09;5232032;28;20619;-75
2022/05/20 12:05:49;;;;;;;28.75;22.90;;;;;;;22.77;60.81;101333.16;5231173;28;20057;-76
2022/05/20 12:08:42;;;;;;;39.20;27.02;;;;;;;22.60;68.76;101329.56;5230090;28;20108;-76
2022/05/20 12:11:37;;;;;;;33.25;26.63;;;;;;;22.31;70.98;101296.91;5232031;28;20045;-76
2022/05/20 12:14:13;;;;;;;34.28;28.05;;;;;;;21.73;75.43;101268.00;5231919;28;20021;-76
2022/05/20 12:17:00;;;;;;;34.47;27.77;;;;;;;21.78;73.23;101262.25;5231598;28;20409;-76
2022/05/20 12:25:55;;;;;;;42.13;32.10;;;;;;;21.47;86.48;101270.69;5232190;28;20045;-77
2022/05/20 12:28:31;;;;;;;40.47;30.65;;;;;;;21.11;81.65;101259.03;5231688;28;20025;-77
2022/05/20 12:31:38;;;;;;;35.90;31.77;;;;;;;21.15;79.75;101243.59;5230689;28;20053;-76
2022/05/20 12:34:40;;;;;;;45.45;33.03;;;;;;;20.95;82.11;101211.78;5224489;28;20381;-77
2022/05/20 12:37:43;;;;;;;41.85;33.53;;;;;;;20.96;80.35;101202.81;5218657;28;20041;-77